Terminal Aerodrome Forecast
Issued by NWS

Home | Current Version | Previous Version | Text Only | Print | Product List | Glossary On
Versions: 1 2 3 4 5 6 7 8 9 10 11 12 13 14 15 16 17 18 19 20 21 22
000
FTUS43 KPAH 052337
TAFCGI
TAF
KCGI 052337Z 0600/0624 15003KT P6SM SKC
     FM060400 00000KT 4SM BR SKC
     FM061000 18004KT 5SM BR SKC
     FM061600 20009G16KT P6SM SCT035=

USA.gov is the U.S. government's official web portal to all federal, state and local government web resources and services.